sensor_id;sensor_type;location;lat;lon;timestamp;P1;durP1;ratioP1;P2;durP2;ratioP2
11614;SDS011;5863;52.832;4.758;2023-07-29T00:01:00;7.05;;;3.53;;
11614;SDS011;5863;52.832;4.758;2023-07-29T00:03:27;9.50;;;3.67;;
11614;SDS011;5863;52.832;4.758;2023-07-29T00:05:55;7.63;;;3.30;;
11614;SDS011;5863;52.832;4.758;2023-07-29T00:08:21;5.53;;;3.00;;
11614;SDS011;5863;52.832;4.758;2023-07-29T00:10:48;7.85;;;3.20;;
11614;SDS011;5863;52.832;4.758;2023-07-29T00:13:15;6.32;;;3.05;;
11614;SDS011;5863;52.832;4.758;2023-07-29T00:15:41;5.80;;;2.65;;
11614;SDS011;5863;52.832;4.758;2023-07-29T00:18:09;8.05;;;3.05;;
11614;SDS011;5863;52.832;4.758;2023-07-29T00:20:36;5.60;;;3.22;;
11614;SDS011;5863;52.832;4.758;2023-07-29T00:23:03;6.03;;;3.38;;
11614;SDS011;5863;52.832;4.758;2023-07-29T00:25:29;13.30;;;3.53;;
11614;SDS011;5863;52.832;4.758;2023-07-29T00:27:56;8.30;;;3.17;;
11614;SDS011;5863;52.832;4.758;2023-07-29T00:30:23;10.95;;;3.30;;
11614;SDS011;5863;52.832;4.758;2023-07-29T00:32:49;7.50;;;3.03;;
11614;SDS011;5863;52.832;4.758;2023-07-29T00:35:17;9.15;;;2.85;;
11614;SDS011;5863;52.832;4.758;2023-07-29T00:37:44;6.45;;;2.80;;
11614;SDS011;5863;52.832;4.758;2023-07-29T00:40:13;7.65;;;2.50;;
11614;SDS011;5863;52.832;4.758;2023-07-29T00:42:41;7.53;;;2.78;;
11614;SDS011;5863;52.832;4.758;2023-07-29T00:45:08;6.70;;;3.17;;
11614;SDS011;5863;52.832;4.758;2023-07-29T00:47:35;7.20;;;2.85;;
11614;SDS011;5863;52.832;4.758;2023-07-29T00:50:02;7.88;;;2.58;;
11614;SDS011;5863;52.832;4.758;2023-07-29T00:52:31;4.43;;;2.25;;
11614;SDS011;5863;52.832;4.758;2023-07-29T00:54:58;7.18;;;2.63;;
11614;SDS011;5863;52.832;4.758;2023-07-29T00:57:24;5.90;;;2.35;;
11614;SDS011;5863;52.832;4.758;2023-07-29T00:59:51;7.20;;;2.35;;
11614;SDS011;5863;52.832;4.758;2023-07-29T01:02:18;7.05;;;2.80;;
11614;SDS011;5863;52.832;4.758;2023-07-29T01:04:45;4.10;;;2.08;;
11614;SDS011;5863;52.832;4.758;2023-07-29T01:07:14;6.63;;;2.53;;
11614;SDS011;5863;52.832;4.758;2023-07-29T01:09:49;5.68;;;2.17;;
11614;SDS011;5863;52.832;4.758;2023-07-29T01:12:24;5.68;;;2.28;;
11614;SDS011;5863;52.832;4.758;2023-07-29T01:15:00;8.63;;;2.58;;
11614;SDS011;5863;52.832;4.758;2023-07-29T01:17:36;9.85;;;2.80;;
11614;SDS011;5863;52.832;4.758;2023-07-29T01:20:07;4.85;;;2.42;;
11614;SDS011;5863;52.832;4.758;2023-07-29T01:22:35;6.47;;;2.50;;
11614;SDS011;5863;52.832;4.758;2023-07-29T01:25:06;5.22;;;2.47;;
11614;SDS011;5863;52.832;4.758;2023-07-29T01:27:33;4.20;;;2.22;;
11614;SDS011;5863;52.832;4.758;2023-07-29T01:30:05;6.20;;;2.60;;
11614;SDS011;5863;52.832;4.758;2023-07-29T01:32:36;5.18;;;2.30;;
11614;SDS011;5863;52.832;4.758;2023-07-29T01:35:10;9.18;;;2.70;;
11614;SDS011;5863;52.832;4.758;2023-07-29T01:37:42;8.38;;;2.80;;
11614;SDS011;5863;52.832;4.758;2023-07-29T01:40:15;4.07;;;2.22;;
11614;SDS011;5863;52.832;4.758;2023-07-29T01:42:43;7.47;;;2.70;;
11614;SDS011;5863;52.832;4.758;2023-07-29T01:45:10;4.40;;;1.92;;
11614;SDS011;5863;52.832;4.758;2023-07-29T01:47:37;4.55;;;2.28;;
11614;SDS011;5863;52.832;4.758;2023-07-29T01:50:06;5.38;;;2.22;;
11614;SDS011;5863;52.832;4.758;2023-07-29T01:52:33;6.63;;;2.30;;
11614;SDS011;5863;52.832;4.758;2023-07-29T01:55:00;5.50;;;2.35;;
11614;SDS011;5863;52.832;4.758;2023-07-29T01:57:28;7.03;;;2.42;;
11614;SDS011;5863;52.832;4.758;2023-07-29T01:59:55;5.60;;;2.42;;
11614;SDS011;5863;52.832;4.758;2023-07-29T02:02:21;7.68;;;2.90;;
11614;SDS011;5863;52.832;4.758;2023-07-29T02:04:48;12.20;;;2.83;;
11614;SDS011;5863;52.832;4.758;2023-07-29T02:07:17;9.07;;;2.38;;
11614;SDS011;5863;52.832;4.758;2023-07-29T02:09:44;5.78;;;2.53;;
11614;SDS011;5863;52.832;4.758;2023-07-29T02:12:10;5.60;;;2.60;;
11614;SDS011;5863;52.832;4.758;2023-07-29T02:14:39;7.47;;;2.50;;
11614;SDS011;5863;52.832;4.758;2023-07-29T02:17:05;7.22;;;2.78;;
11614;SDS011;5863;52.832;4.758;2023-07-29T02:19:33;6.03;;;2.63;;
11614;SDS011;5863;52.832;4.758;2023-07-29T02:22:00;9.07;;;2.47;;
11614;SDS011;5863;52.832;4.758;2023-07-29T02:24:27;6.22;;;2.60;;
11614;SDS011;5863;52.832;4.758;2023-07-29T02:26:54;6.13;;;2.53;;
11614;SDS011;5863;52.832;4.758;2023-07-29T02:29:20;6.78;;;2.70;;
11614;SDS011;5863;52.832;4.758;2023-07-29T02:31:49;6.90;;;2.85;;
11614;SDS011;5863;52.832;4.758;2023-07-29T02:34:15;7.28;;;2.83;;
11614;SDS011;5863;52.832;4.758;2023-07-29T02:36:42;6.05;;;2.75;;
11614;SDS011;5863;52.832;4.758;2023-07-29T02:39:10;7.43;;;2.75;;
11614;SDS011;5863;52.832;4.758;2023-07-29T02:41:37;6.28;;;2.70;;
11614;SDS011;5863;52.832;4.758;2023-07-29T02:44:04;6.32;;;2.80;;
11614;SDS011;5863;52.832;4.758;2023-07-29T02:46:31;7.25;;;3.13;;
11614;SDS011;5863;52.832;4.758;2023-07-29T02:48:59;9.52;;;2.97;;
11614;SDS011;5863;52.832;4.758;2023-07-29T02:51:27;6.40;;;3.25;;
11614;SDS011;5863;52.832;4.758;2023-07-29T02:53:54;7.82;;;3.00;;
11614;SDS011;5863;52.832;4.758;2023-07-29T02:56:20;7.50;;;3.03;;
11614;SDS011;5863;52.832;4.758;2023-07-29T02:58:47;9.05;;;3.35;;
11614;SDS011;5863;52.832;4.758;2023-07-29T03:01:17;8.90;;;3.45;;
11614;SDS011;5863;52.832;4.758;2023-07-29T03:03:43;9.02;;;3.15;;
11614;SDS011;5863;52.832;4.758;2023-07-29T03:06:13;4.85;;;3.15;;
11614;SDS011;5863;52.832;4.758;2023-07-29T03:08:40;9.52;;;3.22;;
11614;SDS011;5863;52.832;4.758;2023-07-29T03:11:07;9.32;;;3.05;;
11614;SDS011;5863;52.832;4.758;2023-07-29T03:13:35;6.68;;;3.40;;
11614;SDS011;5863;52.832;4.758;2023-07-29T03:16:05;6.35;;;2.90;;
11614;SDS011;5863;52.832;4.758;2023-07-29T03:18:32;5.90;;;2.60;;
11614;SDS011;5863;52.832;4.758;2023-07-29T03:20:59;7.85;;;2.88;;
11614;SDS011;5863;52.832;4.758;2023-07-29T03:23:28;5.28;;;2.88;;
11614;SDS011;5863;52.832;4.758;2023-07-29T03:25:55;8.90;;;2.90;;
11614;SDS011;5863;52.832;4.758;2023-07-29T03:28:23;9.98;;;2.97;;
11614;SDS011;5863;52.832;4.758;2023-07-29T03:30:49;8.45;;;3.10;;
11614;SDS011;5863;52.832;4.758;2023-07-29T03:33:16;8.95;;;3.28;;
11614;SDS011;5863;52.832;4.758;2023-07-29T03:35:43;9.02;;;3.53;;
11614;SDS011;5863;52.832;4.758;2023-07-29T03:38:09;10.90;;;3.60;;
11614;SDS011;5863;52.832;4.758;2023-07-29T03:40:38;7.47;;;3.30;;
11614;SDS011;5863;52.832;4.758;2023-07-29T03:43:04;6.22;;;2.97;;
11614;SDS011;5863;52.832;4.758;2023-07-29T03:45:31;7.78;;;2.95;;
11614;SDS011;5863;52.832;4.758;2023-07-29T03:47:58;9.05;;;3.13;;
11614;SDS011;5863;52.832;4.758;2023-07-29T03:50:25;8.48;;;3.00;;
11614;SDS011;5863;52.832;4.758;2023-07-29T03:52:52;8.93;;;2.88;;
11614;SDS011;5863;52.832;4.758;2023-07-29T03:55:18;6.65;;;3.05;;
11614;SDS011;5863;52.832;4.758;2023-07-29T03:57:47;10.50;;;3.20;;
11614;SDS011;5863;52.832;4.758;2023-07-29T04:00:13;12.48;;;3.08;;
11614;SDS011;5863;52.832;4.758;2023-07-29T04:02:40;9.20;;;2.90;;
11614;SDS011;5863;52.832;4.758;2023-07-29T04:05:07;8.65;;;3.05;;
11614;SDS011;5863;52.832;4.758;2023-07-29T04:07:34;10.32;;;3.05;;
11614;SDS011;5863;52.832;4.758;2023-07-29T04:10:01;11.90;;;3.00;;
11614;SDS011;5863;52.832;4.758;2023-07-29T04:12:30;5.97;;;3.00;;
11614;SDS011;5863;52.832;4.758;2023-07-29T04:15:01;9.40;;;2.95;;
11614;SDS011;5863;52.832;4.758;2023-07-29T04:17:28;9.50;;;3.35;;
11614;SDS011;5863;52.832;4.758;2023-07-29T04:19:54;8.88;;;2.88;;
11614;SDS011;5863;52.832;4.758;2023-07-29T04:22:21;10.18;;;2.70;;
11614;SDS011;5863;52.832;4.758;2023-07-29T04:24:48;8.30;;;2.97;;
11614;SDS011;5863;52.832;4.758;2023-07-29T04:27:15;11.00;;;3.05;;
11614;SDS011;5863;52.832;4.758;2023-07-29T04:29:41;9.25;;;2.67;;
11614;SDS011;5863;52.832;4.758;2023-07-29T04:32:09;9.48;;;3.15;;
11614;SDS011;5863;52.832;4.758;2023-07-29T04:34:36;10.40;;;3.15;;
11614;SDS011;5863;52.832;4.758;2023-07-29T04:37:02;7.25;;;2.65;;
11614;SDS011;5863;52.832;4.758;2023-07-29T04:39:29;7.20;;;2.55;;
11614;SDS011;5863;52.832;4.758;2023-07-29T04:41:56;7.78;;;2.80;;
11614;SDS011;5863;52.832;4.758;2023-07-29T04:44:23;6.30;;;2.38;;
11614;SDS011;5863;52.832;4.758;2023-07-29T04:46:49;6.40;;;2.70;;
11614;SDS011;5863;52.832;4.758;2023-07-29T04:49:17;9.52;;;2.63;;
11614;SDS011;5863;52.832;4.758;2023-07-29T04:51:44;9.27;;;2.80;;
11614;SDS011;5863;52.832;4.758;2023-07-29T04:54:11;8.70;;;2.30;;
11614;SDS011;5863;52.832;4.758;2023-07-29T04:56:37;5.07;;;2.47;;
11614;SDS011;5863;52.832;4.758;2023-07-29T04:59:04;7.47;;;2.47;;
11614;SDS011;5863;52.832;4.758;2023-07-29T05:01:33;7.57;;;2.30;;
11614;SDS011;5863;52.832;4.758;2023-07-29T05:04:00;7.95;;;2.60;;
11614;SDS011;5863;52.832;4.758;2023-07-29T05:06:28;4.35;;;2.35;;
11614;SDS011;5863;52.832;4.758;2023-07-29T05:08:56;8.45;;;2.30;;
11614;SDS011;5863;52.832;4.758;2023-07-29T05:11:23;5.93;;;2.13;;
11614;SDS011;5863;52.832;4.758;2023-07-29T05:13:50;4.65;;;2.10;;
11614;SDS011;5863;52.832;4.758;2023-07-29T05:16:17;8.70;;;2.47;;
11614;SDS011;5863;52.832;4.758;2023-07-29T05:18:44;5.15;;;2.17;;
11614;SDS011;5863;52.832;4.758;2023-07-29T05:21:10;6.97;;;2.20;;
11614;SDS011;5863;52.832;4.758;2023-07-29T05:23:40;5.88;;;2.30;;
11614;SDS011;5863;52.832;4.758;2023-07-29T05:26:07;7.45;;;2.42;;
11614;SDS011;5863;52.832;4.758;2023-07-29T05:28:34;6.40;;;2.63;;
11614;SDS011;5863;52.832;4.758;2023-07-29T05:31:01;6.13;;;2.10;;
11614;SDS011;5863;52.832;4.758;2023-07-29T05:33:27;6.88;;;2.17;;
11614;SDS011;5863;52.832;4.758;2023-07-29T05:35:54;7.35;;;2.42;;
11614;SDS011;5863;52.832;4.758;2023-07-29T05:38:21;7.93;;;2.42;;
11614;SDS011;5863;52.832;4.758;2023-07-29T05:40:49;5.25;;;2.10;;
11614;SDS011;5863;52.832;4.758;2023-07-29T05:43:16;5.93;;;2.10;;
11614;SDS011;5863;52.832;4.758;2023-07-29T05:45:42;6.00;;;2.17;;
11614;SDS011;5863;52.832;4.758;2023-07-29T05:48:09;3.88;;;2.22;;
11614;SDS011;5863;52.832;4.758;2023-07-29T05:50:36;7.38;;;2.50;;
11614;SDS011;5863;52.832;4.758;2023-07-29T05:53:02;5.82;;;2.35;;
11614;SDS011;5863;52.832;4.758;2023-07-29T05:55:29;6.38;;;2.40;;
11614;SDS011;5863;52.832;4.758;2023-07-29T05:57:57;5.75;;;2.22;;
11614;SDS011;5863;52.832;4.758;2023-07-29T06:00:24;5.45;;;2.05;;
11614;SDS011;5863;52.832;4.758;2023-07-29T06:02:50;4.10;;;2.15;;
11614;SDS011;5863;52.832;4.758;2023-07-29T06:05:17;9.93;;;2.70;;
11614;SDS011;5863;52.832;4.758;2023-07-29T06:07:44;9.30;;;2.33;;
11614;SDS011;5863;52.832;4.758;2023-07-29T06:10:12;11.10;;;2.58;;
11614;SDS011;5863;52.832;4.758;2023-07-29T06:12:42;8.40;;;2.33;;
11614;SDS011;5863;52.832;4.758;2023-07-29T06:15:10;6.35;;;2.25;;
11614;SDS011;5863;52.832;4.758;2023-07-29T06:17:37;8.13;;;2.35;;
11614;SDS011;5863;52.832;4.758;2023-07-29T06:20:04;11.00;;;2.40;;
11614;SDS011;5863;52.832;4.758;2023-07-29T06:22:32;6.57;;;2.03;;
11614;SDS011;5863;52.832;4.758;2023-07-29T06:24:59;4.22;;;2.00;;
11614;SDS011;5863;52.832;4.758;2023-07-29T06:27:25;6.05;;;2.28;;
11614;SDS011;5863;52.832;4.758;2023-07-29T06:29:52;7.38;;;2.25;;
11614;SDS011;5863;52.832;4.758;2023-07-29T06:32:20;6.93;;;2.20;;
11614;SDS011;5863;52.832;4.758;2023-07-29T06:34:47;7.50;;;2.45;;
11614;SDS011;5863;52.832;4.758;2023-07-29T06:37:13;5.80;;;2.17;;
11614;SDS011;5863;52.832;4.758;2023-07-29T06:39:40;7.72;;;2.28;;
11614;SDS011;5863;52.832;4.758;2023-07-29T06:42:07;8.50;;;2.92;;
11614;SDS011;5863;52.832;4.758;2023-07-29T06:44:33;4.28;;;2.05;;
11614;SDS011;5863;52.832;4.758;2023-07-29T06:47:00;8.65;;;2.13;;
11614;SDS011;5863;52.832;4.758;2023-07-29T06:49:28;5.38;;;2.25;;
11614;SDS011;5863;52.832;4.758;2023-07-29T06:51:55;7.38;;;2.55;;
11614;SDS011;5863;52.832;4.758;2023-07-29T06:54:23;9.05;;;2.78;;
11614;SDS011;5863;52.832;4.758;2023-07-29T06:56:51;3.90;;;2.20;;
11614;SDS011;5863;52.832;4.758;2023-07-29T06:59:17;7.35;;;2.35;;
11614;SDS011;5863;52.832;4.758;2023-07-29T07:01:44;6.07;;;2.25;;
11614;SDS011;5863;52.832;4.758;2023-07-29T07:04:11;10.52;;;2.60;;
11614;SDS011;5863;52.832;4.758;2023-07-29T07:06:39;6.95;;;1.90;;
11614;SDS011;5863;52.832;4.758;2023-07-29T07:09:05;10.13;;;2.45;;
11614;SDS011;5863;52.832;4.758;2023-07-29T07:11:32;6.80;;;2.35;;
11614;SDS011;5863;52.832;4.758;2023-07-29T07:13:59;6.30;;;2.38;;
11614;SDS011;5863;52.832;4.758;2023-07-29T07:16:25;4.28;;;2.00;;
11614;SDS011;5863;52.832;4.758;2023-07-29T07:18:54;6.78;;;2.10;;
11614;SDS011;5863;52.832;4.758;2023-07-29T07:21:21;5.95;;;2.00;;
11614;SDS011;5863;52.832;4.758;2023-07-29T07:23:50;5.90;;;2.38;;
11614;SDS011;5863;52.832;4.758;2023-07-29T07:26:16;8.60;;;2.40;;
11614;SDS011;5863;52.832;4.758;2023-07-29T07:28:43;6.47;;;2.20;;
11614;SDS011;5863;52.832;4.758;2023-07-29T07:31:10;7.55;;;2.20;;
11614;SDS011;5863;52.832;4.758;2023-07-29T07:33:36;5.18;;;2.33;;
11614;SDS011;5863;52.832;4.758;2023-07-29T07:36:03;8.80;;;2.60;;
11614;SDS011;5863;52.832;4.758;2023-07-29T07:38:30;5.07;;;2.17;;
11614;SDS011;5863;52.832;4.758;2023-07-29T07:40:58;7.07;;;2.53;;
11614;SDS011;5863;52.832;4.758;2023-07-29T07:43:25;4.32;;;1.90;;
11614;SDS011;5863;52.832;4.758;2023-07-29T07:45:57;6.03;;;2.10;;
11614;SDS011;5863;52.832;4.758;2023-07-29T07:48:24;5.93;;;2.10;;
11614;SDS011;5863;52.832;4.758;2023-07-29T07:50:51;8.43;;;2.20;;
11614;SDS011;5863;52.832;4.758;2023-07-29T07:53:18;5.18;;;2.00;;
11614;SDS011;5863;52.832;4.758;2023-07-29T07:55:45;5.32;;;1.70;;
11614;SDS011;5863;52.832;4.758;2023-07-29T07:58:13;3.78;;;1.77;;
11614;SDS011;5863;52.832;4.758;2023-07-29T08:00:40;5.55;;;1.88;;
11614;SDS011;5863;52.832;4.758;2023-07-29T08:03:06;7.05;;;2.50;;
11614;SDS011;5863;52.832;4.758;2023-07-29T08:05:33;4.03;;;2.03;;
11614;SDS011;5863;52.832;4.758;2023-07-29T08:08:00;4.65;;;2.05;;
11614;SDS011;5863;52.832;4.758;2023-07-29T08:10:26;3.25;;;1.70;;
11614;SDS011;5863;52.832;4.758;2023-07-29T08:12:53;3.95;;;1.67;;
11614;SDS011;5863;52.832;4.758;2023-07-29T08:15:21;3.95;;;1.70;;
11614;SDS011;5863;52.832;4.758;2023-07-29T08:17:48;3.72;;;1.55;;
11614;SDS011;5863;52.832;4.758;2023-07-29T08:20:14;5.88;;;1.95;;
11614;SDS011;5863;52.832;4.758;2023-07-29T08:22:41;7.93;;;2.20;;
11614;SDS011;5863;52.832;4.758;2023-07-29T08:25:08;4.72;;;2.20;;
11614;SDS011;5863;52.832;4.758;2023-07-29T08:27:35;5.30;;;2.03;;
11614;SDS011;5863;52.832;4.758;2023-07-29T08:30:01;4.32;;;2.00;;
11614;SDS011;5863;52.832;4.758;2023-07-29T08:32:29;6.18;;;1.92;;
11614;SDS011;5863;52.832;4.758;2023-07-29T08:34:56;4.15;;;2.15;;
11614;SDS011;5863;52.832;4.758;2023-07-29T08:37:23;8.18;;;2.20;;
11614;SDS011;5863;52.832;4.758;2023-07-29T08:39:50;7.28;;;2.45;;
11614;SDS011;5863;52.832;4.758;2023-07-29T08:42:18;7.70;;;2.40;;
11614;SDS011;5863;52.832;4.758;2023-07-29T08:44:45;8.38;;;2.33;;
11614;SDS011;5863;52.832;4.758;2023-07-29T08:47:15;4.70;;;2.20;;
11614;SDS011;5863;52.832;4.758;2023-07-29T08:49:44;5.75;;;2.00;;
11614;SDS011;5863;52.832;4.758;2023-07-29T08:52:11;8.85;;;2.10;;
11614;SDS011;5863;52.832;4.758;2023-07-29T08:54:39;10.50;;;2.33;;
11614;SDS011;5863;52.832;4.758;2023-07-29T08:57:06;10.55;;;2.72;;
11614;SDS011;5863;52.832;4.758;2023-07-29T08:59:33;8.15;;;2.35;;
11614;SDS011;5863;52.832;4.758;2023-07-29T09:01:59;5.63;;;2.20;;
11614;SDS011;5863;52.832;4.758;2023-07-29T09:04:26;6.07;;;2.15;;
11614;SDS011;5863;52.832;4.758;2023-07-29T09:06:55;6.60;;;2.45;;
11614;SDS011;5863;52.832;4.758;2023-07-29T09:09:22;8.02;;;2.85;;
11614;SDS011;5863;52.832;4.758;2023-07-29T09:11:49;5.40;;;2.17;;
11614;SDS011;5863;52.832;4.758;2023-07-29T09:14:16;7.32;;;2.15;;
11614;SDS011;5863;52.832;4.758;2023-07-29T09:16:43;7.53;;;2.67;;
11614;SDS011;5863;52.832;4.758;2023-07-29T09:19:10;7.03;;;2.88;;
11614;SDS011;5863;52.832;4.758;2023-07-29T09:21:38;9.32;;;2.20;;
11614;SDS011;5863;52.832;4.758;2023-07-29T09:24:06;9.73;;;2.28;;
11614;SDS011;5863;52.832;4.758;2023-07-29T09:26:34;5.35;;;2.05;;
11614;SDS011;5863;52.832;4.758;2023-07-29T09:29:01;5.75;;;2.15;;
11614;SDS011;5863;52.832;4.758;2023-07-29T09:31:28;4.75;;;1.90;;
11614;SDS011;5863;52.832;4.758;2023-07-29T09:33:56;4.97;;;2.00;;
11614;SDS011;5863;52.832;4.758;2023-07-29T09:36:24;7.03;;;2.45;;
11614;SDS011;5863;52.832;4.758;2023-07-29T09:38:52;6.72;;;2.10;;
11614;SDS011;5863;52.832;4.758;2023-07-29T09:41:22;4.93;;;1.90;;
11614;SDS011;5863;52.832;4.758;2023-07-29T09:43:54;3.53;;;1.83;;
11614;SDS011;5863;52.832;4.758;2023-07-29T09:46:23;6.60;;;1.95;;
11614;SDS011;5863;52.832;4.758;2023-07-29T09:48:52;6.40;;;2.10;;
11614;SDS011;5863;52.832;4.758;2023-07-29T09:51:19;10.40;;;2.72;;
11614;SDS011;5863;52.832;4.758;2023-07-29T09:53:46;7.45;;;2.42;;
11614;SDS011;5863;52.832;4.758;2023-07-29T09:56:14;6.63;;;2.30;;
11614;SDS011;5863;52.832;4.758;2023-07-29T09:58:43;7.40;;;2.20;;
11614;SDS011;5863;52.832;4.758;2023-07-29T10:01:11;8.25;;;1.90;;
11614;SDS011;5863;52.832;4.758;2023-07-29T10:03:38;5.47;;;2.13;;
11614;SDS011;5863;52.832;4.758;2023-07-29T10:06:06;5.55;;;1.90;;
11614;SDS011;5863;52.832;4.758;2023-07-29T10:08:33;7.80;;;2.05;;
11614;SDS011;5863;52.832;4.758;2023-07-29T10:11:03;5.25;;;2.00;;
11614;SDS011;5863;52.832;4.758;2023-07-29T10:13:31;3.83;;;1.60;;
11614;SDS011;5863;52.832;4.758;2023-07-29T10:16:00;5.43;;;2.10;;
11614;SDS011;5863;52.832;4.758;2023-07-29T10:18:28;3.00;;;1.58;;
11614;SDS011;5863;52.832;4.758;2023-07-29T10:20:56;4.10;;;1.70;;
11614;SDS011;5863;52.832;4.758;2023-07-29T10:23:24;3.22;;;1.70;;
11614;SDS011;5863;52.832;4.758;2023-07-29T10:25:54;6.53;;;2.05;;
11614;SDS011;5863;52.832;4.758;2023-07-29T10:28:27;4.55;;;1.80;;
11614;SDS011;5863;52.832;4.758;2023-07-29T10:30:59;3.03;;;1.70;;
11614;SDS011;5863;52.832;4.758;2023-07-29T10:33:26;5.05;;;1.77;;
11614;SDS011;5863;52.832;4.758;2023-07-29T10:35:53;5.07;;;1.75;;
11614;SDS011;5863;52.832;4.758;2023-07-29T10:38:21;5.00;;;2.20;;
11614;SDS011;5863;52.832;4.758;2023-07-29T10:40:50;2.92;;;1.55;;
11614;SDS011;5863;52.832;4.758;2023-07-29T10:43:19;5.35;;;2.08;;
11614;SDS011;5863;52.832;4.758;2023-07-29T10:45:50;3.75;;;1.50;;
11614;SDS011;5863;52.832;4.758;2023-07-29T10:51:24;3.97;;;2.20;;
11614;SDS011;5863;52.832;4.758;2023-07-29T10:53:54;3.75;;;1.83;;
11614;SDS011;5863;52.832;4.758;2023-07-29T10:56:26;3.55;;;1.77;;
11614;SDS011;5863;52.832;4.758;2023-07-29T10:58:57;5.35;;;2.17;;
11614;SDS011;5863;52.832;4.758;2023-07-29T11:01:28;4.85;;;1.95;;
11614;SDS011;5863;52.832;4.758;2023-07-29T11:07:01;5.70;;;2.42;;
11614;SDS011;5863;52.832;4.758;2023-07-29T11:09:52;7.30;;;2.17;;
11614;SDS011;5863;52.832;4.758;2023-07-29T11:12:35;7.97;;;2.40;;
11614;SDS011;5863;52.832;4.758;2023-07-29T11:15:13;6.65;;;2.25;;
11614;SDS011;5863;52.832;4.758;2023-07-29T11:17:41;7.70;;;2.40;;
11614;SDS011;5863;52.832;4.758;2023-07-29T11:20:11;6.90;;;2.55;;
11614;SDS011;5863;52.832;4.758;2023-07-29T11:22:38;6.82;;;2.30;;
11614;SDS011;5863;52.832;4.758;2023-07-29T11:25:06;5.88;;;2.40;;
11614;SDS011;5863;52.832;4.758;2023-07-29T11:27:34;6.50;;;2.78;;
11614;SDS011;5863;52.832;4.758;2023-07-29T11:30:01;7.35;;;2.53;;
11614;SDS011;5863;52.832;4.758;2023-07-29T11:32:30;7.53;;;2.53;;
11614;SDS011;5863;52.832;4.758;2023-07-29T11:35:00;5.45;;;2.53;;
11614;SDS011;5863;52.832;4.758;2023-07-29T11:37:29;8.20;;;2.55;;
11614;SDS011;5863;52.832;4.758;2023-07-29T11:39:56;5.82;;;2.55;;
11614;SDS011;5863;52.832;4.758;2023-07-29T11:42:23;5.40;;;2.60;;
11614;SDS011;5863;52.832;4.758;2023-07-29T11:44:50;9.40;;;2.60;;
11614;SDS011;5863;52.832;4.758;2023-07-29T11:47:17;8.10;;;2.50;;
11614;SDS011;5863;52.832;4.758;2023-07-29T11:49:43;6.20;;;2.42;;
11614;SDS011;5863;52.832;4.758;2023-07-29T11:52:10;3.70;;;2.25;;
11614;SDS011;5863;52.832;4.758;2023-07-29T11:54:39;7.85;;;2.40;;
11614;SDS011;5863;52.832;4.758;2023-07-29T11:57:06;9.50;;;2.67;;
11614;SDS011;5863;52.832;4.758;2023-07-29T11:59:33;7.88;;;2.63;;
11614;SDS011;5863;52.832;4.758;2023-07-29T12:02:00;4.38;;;2.30;;
11614;SDS011;5863;52.832;4.758;2023-07-29T12:04:31;3.72;;;1.95;;
11614;SDS011;5863;52.832;4.758;2023-07-29T12:06:59;5.05;;;2.40;;
11614;SDS011;5863;52.832;4.758;2023-07-29T12:09:27;3.47;;;2.30;;
11614;SDS011;5863;52.832;4.758;2023-07-29T12:11:55;4.13;;;2.35;;
11614;SDS011;5863;52.832;4.758;2023-07-29T12:14:25;4.70;;;2.50;;
11614;SDS011;5863;52.832;4.758;2023-07-29T12:16:53;6.03;;;2.53;;
11614;SDS011;5863;52.832;4.758;2023-07-29T12:19:19;6.57;;;2.35;;
11614;SDS011;5863;52.832;4.758;2023-07-29T12:21:47;6.13;;;2.40;;
11614;SDS011;5863;52.832;4.758;2023-07-29T12:24:14;8.20;;;2.63;;
11614;SDS011;5863;52.832;4.758;2023-07-29T12:26:41;3.53;;;2.28;;
11614;SDS011;5863;52.832;4.758;2023-07-29T12:29:12;6.18;;;2.13;;
11614;SDS011;5863;52.832;4.758;2023-07-29T12:31:40;5.82;;;2.30;;
11614;SDS011;5863;52.832;4.758;2023-07-29T12:34:07;5.50;;;2.30;;
11614;SDS011;5863;52.832;4.758;2023-07-29T12:36:41;5.50;;;2.40;;
11614;SDS011;5863;52.832;4.758;2023-07-29T12:39:15;2.50;;;1.58;;
11614;SDS011;5863;52.832;4.758;2023-07-29T12:41:42;5.45;;;2.05;;
11614;SDS011;5863;52.832;4.758;2023-07-29T12:44:09;4.93;;;2.20;;
11614;SDS011;5863;52.832;4.758;2023-07-29T12:46:37;7.38;;;2.63;;
11614;SDS011;5863;52.832;4.758;2023-07-29T12:49:04;7.47;;;2.88;;
11614;SDS011;5863;52.832;4.758;2023-07-29T12:51:31;7.75;;;2.28;;
11614;SDS011;5863;52.832;4.758;2023-07-29T12:53:57;6.50;;;2.33;;
11614;SDS011;5863;52.832;4.758;2023-07-29T12:56:24;7.50;;;2.35;;
11614;SDS011;5863;52.832;4.758;2023-07-29T12:58:51;7.20;;;2.20;;
11614;SDS011;5863;52.832;4.758;2023-07-29T13:01:18;6.80;;;2.50;;
11614;SDS011;5863;52.832;4.758;2023-07-29T13:03:46;3.88;;;2.00;;
11614;SDS011;5863;52.832;4.758;2023-07-29T13:06:13;4.20;;;2.10;;
11614;SDS011;5863;52.832;4.758;2023-07-29T13:08:40;5.50;;;2.60;;
11614;SDS011;5863;52.832;4.758;2023-07-29T13:11:07;6.88;;;2.20;;
11614;SDS011;5863;52.832;4.758;2023-07-29T13:13:34;5.15;;;2.17;;
11614;SDS011;5863;52.832;4.758;2023-07-29T13:16:01;5.22;;;2.00;;
11614;SDS011;5863;52.832;4.758;2023-07-29T13:18:27;4.88;;;1.85;;
11614;SDS011;5863;52.832;4.758;2023-07-29T13:20:55;5.07;;;2.25;;
11614;SDS011;5863;52.832;4.758;2023-07-29T13:23:22;6.00;;;2.13;;
11614;SDS011;5863;52.832;4.758;2023-07-29T13:25:49;5.57;;;2.05;;
11614;SDS011;5863;52.832;4.758;2023-07-29T13:28:15;6.15;;;2.20;;
11614;SDS011;5863;52.832;4.758;2023-07-29T13:30:42;4.40;;;2.03;;
11614;SDS011;5863;52.832;4.758;2023-07-29T13:33:09;6.68;;;2.05;;
11614;SDS011;5863;52.832;4.758;2023-07-29T13:35:35;6.53;;;1.75;;
11614;SDS011;5863;52.832;4.758;2023-07-29T13:38:03;3.63;;;1.38;;
11614;SDS011;5863;52.832;4.758;2023-07-29T13:40:31;5.10;;;1.80;;
11614;SDS011;5863;52.832;4.758;2023-07-29T13:42:58;6.47;;;2.00;;
11614;SDS011;5863;52.832;4.758;2023-07-29T13:45:24;4.15;;;1.75;;
11614;SDS011;5863;52.832;4.758;2023-07-29T13:47:51;5.60;;;1.98;;
11614;SDS011;5863;52.832;4.758;2023-07-29T13:50:18;4.78;;;1.88;;
11614;SDS011;5863;52.832;4.758;2023-07-29T13:52:45;5.78;;;1.65;;
11614;SDS011;5863;52.832;4.758;2023-07-29T13:55:13;5.85;;;1.75;;
11614;SDS011;5863;52.832;4.758;2023-07-29T13:57:39;3.90;;;1.65;;
11614;SDS011;5863;52.832;4.758;2023-07-29T14:00:07;4.85;;;1.48;;
11614;SDS011;5863;52.832;4.758;2023-07-29T14:02:34;4.50;;;1.40;;
11614;SDS011;5863;52.832;4.758;2023-07-29T14:05:00;3.83;;;1.60;;
11614;SDS011;5863;52.832;4.758;2023-07-29T14:07:27;1.98;;;1.13;;
11614;SDS011;5863;52.832;4.758;2023-07-29T14:09:54;3.35;;;1.58;;
11614;SDS011;5863;52.832;4.758;2023-07-29T14:12:22;4.50;;;1.45;;
11614;SDS011;5863;52.832;4.758;2023-07-29T14:14:48;2.20;;;1.25;;
11614;SDS011;5863;52.832;4.758;2023-07-29T14:17:15;2.03;;;1.30;;
11614;SDS011;5863;52.832;4.758;2023-07-29T14:19:42;2.42;;;1.10;;
11614;SDS011;5863;52.832;4.758;2023-07-29T14:22:08;3.47;;;1.20;;
11614;SDS011;5863;52.832;4.758;2023-07-29T14:24:35;5.38;;;1.40;;
11614;SDS011;5863;52.832;4.758;2023-07-29T14:27:02;2.47;;;1.40;;
11614;SDS011;5863;52.832;4.758;2023-07-29T14:29:30;5.15;;;1.50;;
11614;SDS011;5863;52.832;4.758;2023-07-29T14:31:57;3.72;;;1.20;;
11614;SDS011;5863;52.832;4.758;2023-07-29T14:34:24;3.38;;;1.58;;
11614;SDS011;5863;52.832;4.758;2023-07-29T14:36:50;4.00;;;1.50;;
11614;SDS011;5863;52.832;4.758;2023-07-29T14:39:17;2.90;;;1.40;;
11614;SDS011;5863;52.832;4.758;2023-07-29T14:41:44;4.75;;;1.70;;
11614;SDS011;5863;52.832;4.758;2023-07-29T14:44:10;5.07;;;1.60;;
11614;SDS011;5863;52.832;4.758;2023-07-29T14:46:38;3.45;;;1.50;;
11614;SDS011;5863;52.832;4.758;2023-07-29T14:49:05;3.50;;;2.00;;
11614;SDS011;5863;52.832;4.758;2023-07-29T14:51:31;5.00;;;2.20;;
11614;SDS011;5863;52.832;4.758;2023-07-29T14:53:58;4.32;;;1.80;;
11614;SDS011;5863;52.832;4.758;2023-07-29T14:56:25;3.08;;;1.65;;
11614;SDS011;5863;52.832;4.758;2023-07-29T14:58:52;2.03;;;1.60;;
11614;SDS011;5863;52.832;4.758;2023-07-29T15:01:18;3.80;;;1.60;;
11614;SDS011;5863;52.832;4.758;2023-07-29T15:03:46;2.25;;;1.33;;
11614;SDS011;5863;52.832;4.758;2023-07-29T15:06:13;2.67;;;1.55;;
11614;SDS011;5863;52.832;4.758;2023-07-29T15:08:40;2.05;;;1.55;;